createdAt,value
2023-04-15T00:00:34.142Z,99838.00
2023-04-15T00:10:34.173Z,99838.00
2023-04-15T00:20:34.165Z,99836.00
2023-04-15T00:30:34.215Z,99832.00
2023-04-15T00:40:35.128Z,99832.00
2023-04-15T00:50:35.217Z,99830.00
2023-04-15T01:00:35.467Z,99828.00
2023-04-15T01:10:36.205Z,99828.00
2023-04-15T01:20:36.558Z,99826.00
2023-04-15T01:30:37.509Z,99822.00
2023-04-15T01:40:38.380Z,99822.00
2023-04-15T01:50:38.311Z,99822.00
2023-04-15T02:00:38.323Z,99820.00
2023-04-15T02:10:39.312Z,99820.00
2023-04-15T02:20:39.487Z,99824.00
2023-04-15T02:30:40.379Z,99832.00
2023-04-15T02:40:40.866Z,99838.00
2023-04-15T02:50:42.634Z,99846.00
2023-04-15T03:00:43.457Z,99852.00
2023-04-15T03:10:43.559Z,99852.00
2023-04-15T03:20:44.026Z,99858.00
2023-04-15T03:30:44.660Z,99864.00
2023-04-15T03:40:45.868Z,99867.00
2023-04-15T03:50:46.724Z,99879.00
2023-04-15T04:00:47.526Z,99887.00
2023-04-15T04:10:47.416Z,99891.00
2023-04-15T04:20:47.460Z,99893.00
2023-04-15T04:30:47.419Z,99901.00
2023-04-15T04:40:47.572Z,99912.00
2023-04-15T04:50:47.677Z,99918.00
2023-04-15T05:00:47.520Z,99928.00
2023-04-15T05:10:47.506Z,99936.00
2023-04-15T05:20:49.373Z,99940.00
2023-04-15T05:30:49.536Z,99946.00
2023-04-15T05:40:49.539Z,99958.00
2023-04-15T05:50:49.608Z,99967.00
2023-04-15T06:00:49.518Z,99977.00
2023-04-15T06:10:49.646Z,99989.00
2023-04-15T06:20:49.701Z,100006.00
2023-04-15T06:30:49.638Z,100018.00
2023-04-15T06:40:49.596Z,100035.00
2023-04-15T06:50:49.701Z,100046.00
2023-04-15T07:00:49.732Z,100058.00
2023-04-15T07:10:49.743Z,100064.00
2023-04-15T07:20:49.780Z,100080.00
2023-04-15T07:30:49.655Z,100086.00
2023-04-15T07:40:50.442Z,100093.00
2023-04-15T07:50:50.791Z,100103.00
2023-04-15T08:00:50.806Z,100113.00
2023-04-15T08:10:52.592Z,100123.00
2023-04-15T08:20:52.814Z,100127.00
2023-04-15T08:30:52.872Z,100133.00
2023-04-15T08:40:52.752Z,100140.00
2023-04-15T08:50:53.166Z,100154.00
2023-04-15T09:00:53.853Z,100166.00
2023-04-15T09:10:53.824Z,100174.00
2023-04-15T09:20:53.900Z,100182.00
2023-04-15T09:30:53.854Z,100187.00
2023-04-15T09:40:53.901Z,100199.00
2023-04-15T09:50:54.554Z,100213.00
2023-04-15T10:00:54.890Z,100217.00
2023-04-15T10:10:55.022Z,100221.00
2023-04-15T10:20:55.156Z,100227.00
2023-04-15T10:30:58.072Z,100232.00
2023-04-15T10:40:57.949Z,100232.00
2023-04-15T10:50:57.982Z,100242.00
2023-04-15T11:00:58.123Z,100248.00
2023-04-15T11:10:57.908Z,100256.00
2023-04-15T11:20:58.999Z,100262.00
2023-04-15T11:30:59.350Z,100268.00
2023-04-15T11:41:00.036Z,100286.00
2023-04-15T11:51:00.367Z,100290.00
2023-04-15T12:01:01.151Z,100306.00
2023-04-15T12:11:01.109Z,100321.00
2023-04-15T12:21:01.184Z,100337.00
2023-04-15T12:31:01.580Z,100351.00
2023-04-15T12:41:02.118Z,100368.00
2023-04-15T12:51:03.928Z,100388.00
2023-04-15T13:01:04.209Z,100402.00
2023-04-15T13:11:04.204Z,100419.00
2023-04-15T13:21:06.245Z,100439.00
2023-04-15T13:31:06.245Z,100451.00
2023-04-15T13:41:19.625Z,100462.00
2023-04-15T13:51:20.326Z,100470.00
2023-04-15T14:01:20.466Z,100478.00
2023-04-15T14:11:21.110Z,100486.00
2023-04-15T14:21:21.229Z,100500.00
2023-04-15T14:31:21.348Z,100507.00
2023-04-15T14:41:22.893Z,100515.00
2023-04-15T14:51:23.223Z,100525.00
2023-04-15T15:01:23.314Z,100533.00
2023-04-15T15:11:23.203Z,100553.00
2023-04-15T15:21:23.460Z,100567.00
2023-04-15T15:31:23.295Z,100575.00
2023-04-15T15:41:23.484Z,100589.00
2023-04-15T15:51:23.234Z,100600.00
2023-04-15T16:01:23.329Z,100612.00
2023-04-15T16:11:23.269Z,100616.00
2023-04-15T16:21:24.370Z,100632.00
2023-04-15T16:31:24.428Z,100637.00
2023-04-15T16:41:24.314Z,100647.00
2023-04-15T16:51:24.417Z,100663.00
2023-04-15T17:01:24.479Z,100669.00
2023-04-15T17:11:24.335Z,100683.00
2023-04-15T17:21:26.218Z,100698.00
2023-04-15T17:31:26.602Z,100708.00
2023-04-15T17:41:26.424Z,100716.00
2023-04-15T17:51:28.371Z,100730.00
2023-04-15T18:01:28.562Z,100739.00
2023-04-15T18:11:28.463Z,100757.00
2023-04-15T18:21:28.528Z,100775.00
2023-04-15T18:31:28.575Z,100790.00
2023-04-15T18:41:29.158Z,100809.00
2023-04-15T18:51:29.618Z,100826.00
2023-04-15T19:01:29.615Z,100840.00
2023-04-15T19:11:29.498Z,100848.00
2023-04-15T19:21:49.569Z,100860.00
2023-04-15T19:31:49.544Z,100877.00
2023-04-15T19:41:49.639Z,100891.00
2023-04-15T19:51:50.291Z,100903.00
2023-04-15T20:01:51.127Z,100909.00
2023-04-15T20:12:09.986Z,100918.00
2023-04-15T20:21:56.671Z,100928.00
2023-04-15T20:31:56.616Z,100934.00
2023-04-15T20:42:00.842Z,100940.00
2023-04-15T20:52:00.936Z,100940.00
2023-04-15T21:02:01.150Z,100936.00
2023-04-15T21:12:02.295Z,100944.00
2023-04-15T21:22:02.794Z,100954.00
2023-04-15T21:32:02.842Z,100967.00
2023-04-15T21:42:02.817Z,100973.00
2023-04-15T21:52:04.101Z,100985.00
2023-04-15T22:02:04.857Z,100993.00
2023-04-15T22:12:05.813Z,101005.00
2023-04-15T22:22:05.855Z,101014.00
2023-04-15T22:32:06.438Z,101022.00
2023-04-15T22:42:06.717Z,101028.00
2023-04-15T22:52:09.024Z,101036.00
2023-04-15T23:02:09.019Z,101042.00
2023-04-15T23:12:09.946Z,101048.00
2023-04-15T23:22:11.737Z,101060.00
2023-04-15T23:32:11.932Z,101064.00
2023-04-15T23:42:11.804Z,101072.00
2023-04-15T23:52:14.902Z,101072.00
